Time;durP1;ratioP1;P1;durP2;ratioP2;P2;SDS_P1;SDS_P2;PMS_P1;PMS_P2;Temp;Humidity;BMP_temperature;BMP_pressure;BME280_temperature;BME280_humidity;BME280_pressure;Samples;Min_cycle;Max_cycle;Signal;HPM_P1;HPM_P2
2021/03/15 00:02:53;;;;;;;22.05;17.95;;;;;;;;;;10487587;27;20061;-64
2021/03/15 00:07:51;;;;;;;20.08;17.42;;;;;;;;;;10486457;27;20419;-64
2021/03/15 00:12:48;;;;;;;21.40;19.20;;;;;;;;;;10485615;27;20070;-64
2021/03/15 00:17:46;;;;;;;20.77;18.60;;;;;;;;;;10487032;27;20039;-64
2021/03/15 00:22:45;;;;;;;21.23;18.83;;;;;;;;;;10485635;27;20042;-64
2021/03/15 00:27:42;;;;;;;21.73;19.02;;;;;;;;;;10485430;27;20066;-64
2021/03/15 00:32:40;;;;;;;21.80;17.98;;;;;;;;;;10485514;27;20082;-64
2021/03/15 00:37:39;;;;;;;22.65;18.83;;;;;;;;;;10467010;27;20047;-64
2021/03/15 00:42:37;;;;;;;21.13;18.98;;;;;;;;;;10486710;27;20058;-64
2021/03/15 00:47:34;;;;;;;20.67;18.55;;;;;;;;;;10466683;27;20039;-64
2021/03/15 00:52:32;;;;;;;21.45;19.15;;;;;;;;;;10485445;27;20085;-64
2021/03/15 00:57:30;;;;;;;19.92;17.83;;;;;;;;;;10485422;27;20083;-64
2021/03/15 01:02:28;;;;;;;23.92;19.05;;;;;;;;;;10484264;27;20073;-64
2021/03/15 01:07:26;;;;;;;19.25;17.35;;;;;;;;;;10465432;27;20539;-64
2021/03/15 01:12:23;;;;;;;20.38;18.15;;;;;;;;;;10484680;27;20070;-64
2021/03/15 01:17:22;;;;;;;21.90;18.10;;;;;;;;;;10484664;27;20054;-64
2021/03/15 01:22:23;;;;;;;22.75;18.67;;;;;;;;;;10465299;27;20047;-64
2021/03/15 01:27:20;;;;;;;21.17;18.92;;;;;;;;;;10484314;27;20043;-64
2021/03/15 01:32:18;;;;;;;22.35;20.00;;;;;;;;;;10482537;27;20074;-64
2021/03/15 01:37:16;;;;;;;20.30;18.30;;;;;;;;;;10483633;27;20039;-64
2021/03/15 01:42:14;;;;;;;24.05;18.85;;;;;;;;;;10484029;27;20527;-64
2021/03/15 01:47:11;;;;;;;21.88;17.85;;;;;;;;;;10484483;27;20058;-65
2021/03/15 01:52:09;;;;;;;20.15;18.05;;;;;;;;;;10484189;27;20078;-64
2021/03/15 01:57:07;;;;;;;22.42;19.20;;;;;;;;;;10484271;27;20046;-64
2021/03/15 02:02:05;;;;;;;20.88;18.40;;;;;;;;;;10482724;27;20042;-64
2021/03/15 02:07:03;;;;;;;24.52;21.77;;;;;;;;;;10482900;27;20049;-64
2021/03/15 02:12:06;;;;;;;23.67;20.25;;;;;;;;;;10482656;27;20081;-64
2021/03/15 02:17:12;;;;;;;23.30;19.38;;;;;;;;;;10482927;27;20047;-64
2021/03/15 02:22:30;;;;;;;21.48;19.15;;;;;;;;;;10483607;27;20046;-64
2021/03/15 02:27:39;;;;;;;18.58;16.70;;;;;;;;;;10438274;27;20067;-64
2021/03/15 02:32:50;;;;;;;20.92;18.38;;;;;;;;;;10482333;27;20051;-65
2021/03/15 02:37:51;;;;;;;34.13;28.63;;;;;;;;;;10463127;27;20047;-64
2021/03/15 02:42:50;;;;;;;39.72;30.92;;;;;;;;;;10482025;27;20046;-64
2021/03/15 02:47:49;;;;;;;26.50;23.50;;;;;;;;;;10482093;27;20035;-64
2021/03/15 02:52:47;;;;;;;24.20;21.65;;;;;;;;;;10486009;27;20066;-64
2021/03/15 02:57:46;;;;;;;20.65;18.17;;;;;;;;;;10489640;27;20050;-64
2021/03/15 03:02:45;;;;;;;21.95;18.65;;;;;;;;;;10489806;27;20046;-65
2021/03/15 03:07:44;;;;;;;27.67;18.67;;;;;;;;;;10489547;27;20043;-63
2021/03/15 03:12:42;;;;;;;39.55;29.08;;;;;;;;;;10489502;27;20069;-64
2021/03/15 03:17:41;;;;;;;24.60;21.63;;;;;;;;;;10489823;27;20775;-64
2021/03/15 03:22:40;;;;;;;21.55;19.33;;;;;;;;;;10489230;27;20043;-64
2021/03/15 03:27:38;;;;;;;23.13;20.05;;;;;;;;;;10488568;27;20081;-64
2021/03/15 03:32:36;;;;;;;40.60;36.60;;;;;;;;;;10487890;27;20082;-64
2021/03/15 03:37:34;;;;;;;36.15;32.33;;;;;;;;;;10487470;27;20070;-64
2021/03/15 03:42:31;;;;;;;37.30;33.40;;;;;;;;;;10487422;27;20487;-64
2021/03/15 03:47:29;;;;;;;23.23;20.80;;;;;;;;;;10488044;27;20046;-63
2021/03/15 03:52:29;;;;;;;21.83;19.67;;;;;;;;;;10487468;27;20533;-64
2021/03/15 03:57:30;;;;;;;21.85;19.65;;;;;;;;;;10487852;27;20070;-64
2021/03/15 04:02:28;;;;;;;24.10;18.83;;;;;;;;;;10487510;27;20179;-64
2021/03/15 04:07:27;;;;;;;32.42;29.02;;;;;;;;;;10487112;27;20046;-64
2021/03/15 04:12:25;;;;;;;38.45;30.92;;;;;;;;;;10487054;27;20510;-64
2021/03/15 04:17:24;;;;;;;56.75;41.10;;;;;;;;;;10486486;27;20039;-64
2021/03/15 04:22:23;;;;;;;42.03;30.40;;;;;;;;;;10485987;27;20076;-64
2021/03/15 04:27:20;;;;;;;32.17;25.05;;;;;;;;;;10485878;27;20511;-64
2021/03/15 04:32:18;;;;;;;28.17;21.92;;;;;;;;;;10485456;27;20074;-64
2021/03/15 04:37:17;;;;;;;22.10;18.50;;;;;;;;;;10487119;27;20039;-64
2021/03/15 04:42:14;;;;;;;23.42;19.52;;;;;;;;;;10484905;27;20047;-64
2021/03/15 04:47:13;;;;;;;21.83;19.33;;;;;;;;;;10486384;27;20046;-64
2021/03/15 04:52:11;;;;;;;21.40;18.90;;;;;;;;;;10486522;27;20086;-64
2021/03/15 04:57:10;;;;;;;23.25;19.48;;;;;;;;;;10485180;27;20078;-64
2021/03/15 05:02:07;;;;;;;21.30;18.73;;;;;;;;;;10486261;27;20035;-64
2021/03/15 05:07:05;;;;;;;19.35;17.33;;;;;;;;;;10485096;27;20101;-64
2021/03/15 05:12:20;;;;;;;20.25;17.73;;;;;;;;;;10484701;27;20078;-64
2021/03/15 05:17:18;;;;;;;28.42;22.17;;;;;;;;;;10483788;27;20082;-64
2021/03/15 05:22:16;;;;;;;20.20;16.63;;;;;;;;;;10483890;27;20061;-63
2021/03/15 05:27:13;;;;;;;20.02;18.00;;;;;;;;;;10484297;27;20408;-64
2021/03/15 05:32:14;;;;;;;18.13;16.23;;;;;;;;;;10484136;27;20074;-64
2021/03/15 05:37:11;;;;;;;26.65;20.30;;;;;;;;;;10484207;27;20039;-64
2021/03/15 05:42:24;;;;;;;21.50;18.60;;;;;;;;;;10483612;27;20439;-63
2021/03/15 05:47:42;;;;;;;27.73;21.65;;;;;;;;;;10481204;27;20058;-64
2021/03/15 05:52:46;;;;;;;31.95;26.58;;;;;;;;;;10482714;27;20082;-64
2021/03/15 05:58:01;;;;;;;30.05;23.88;;;;;;;;;;10482723;27;20098;-64
2021/03/15 06:03:07;;;;;;;21.55;17.45;;;;;;;;;;10483089;27;20046;-64
2021/03/15 06:08:10;;;;;;;36.10;31.08;;;;;;;;;;10482001;27;20039;-64
2021/03/15 06:13:12;;;;;;;51.65;39.05;;;;;;;;;;10482778;27;20108;-64
2021/03/15 06:18:13;;;;;;;63.05;42.28;;;;;;;;;;10482694;27;20057;-64
2021/03/15 06:23:11;;;;;;;61.13;46.25;;;;;;;;;;10481897;27;20043;-64
2021/03/15 06:28:09;;;;;;;61.17;46.05;;;;;;;;;;10486164;27;20058;-64
2021/03/15 06:33:06;;;;;;;57.97;42.15;;;;;;;;;;10491129;27;20488;-65
2021/03/15 06:38:04;;;;;;;71.80;56.28;;;;;;;;;;10490260;27;20425;-64
2021/03/15 06:43:03;;;;;;;65.15;49.45;;;;;;;;;;10490039;27;20058;-64
2021/03/15 06:48:05;;;;;;;102.30;83.43;;;;;;;;;;10490984;27;20067;-64
2021/03/15 06:53:04;;;;;;;103.50;77.20;;;;;;;;;;10490337;27;20043;-64
2021/03/15 06:58:01;;;;;;;80.53;52.58;;;;;;;;;;10489723;27;20066;-64
2021/03/15 07:03:00;;;;;;;77.45;51.95;;;;;;;;;;10489888;27;20046;-65
2021/03/15 07:07:58;;;;;;;64.90;46.00;;;;;;;;;;10489927;27;20050;-64
2021/03/15 07:13:08;;;;;;;61.33;44.00;;;;;;;;;;10488612;27;20082;-65
2021/03/15 07:18:11;;;;;;;58.15;41.70;;;;;;;;;;10489406;27;20527;-64
2021/03/15 07:23:08;;;;;;;55.47;41.38;;;;;;;;;;10489365;27;20039;-64
2021/03/15 07:28:06;;;;;;;49.03;37.03;;;;;;;;;;10489072;27;20038;-64
2021/03/15 07:33:04;;;;;;;21.48;19.13;;;;;;;;;;10488517;27;20070;-63
2021/03/15 07:38:03;;;;;;;23.58;19.90;;;;;;;;;;10487812;27;20046;-65
2021/03/15 07:43:02;;;;;;;33.10;27.25;;;;;;;;;;10488136;27;20393;-65
2021/03/15 07:48:06;;;;;;;29.05;25.65;;;;;;;;;;10487769;27;20057;-65
2021/03/15 07:53:05;;;;;;;27.73;22.37;;;;;;;;;;10488033;27;20085;-65
2021/03/15 07:58:03;;;;;;;18.05;16.10;;;;;;;;;;10487962;27;20043;-65
2021/03/15 08:03:01;;;;;;;22.15;19.23;;;;;;;;;;10487643;27;20038;-65
2021/03/15 08:08:11;;;;;;;22.15;18.73;;;;;;;;;;10487592;27;20046;-65
2021/03/15 08:13:09;;;;;;;21.88;15.85;;;;;;;;;;10486988;27;20082;-65
2021/03/15 08:18:08;;;;;;;20.73;16.77;;;;;;;;;;10487192;27;20042;-65
2021/03/15 08:23:05;;;;;;;52.28;45.10;;;;;;;;;;10486220;27;20054;-65
2021/03/15 08:28:04;;;;;;;55.25;41.28;;;;;;;;;;10485983;27;20508;-65
2021/03/15 08:33:02;;;;;;;86.15;47.63;;;;;;;;;;10485673;27;20082;-65
2021/03/15 08:37:59;;;;;;;83.00;52.78;;;;;;;;;;10486348;27;20433;-65
2021/03/15 08:43:21;;;;;;;62.97;45.30;;;;;;;;;;10486321;27;20047;-65
2021/03/15 08:48:20;;;;;;;44.83;34.38;;;;;;;;;;10485222;27;20047;-64
2021/03/15 08:53:35;;;;;;;37.55;32.20;;;;;;;;;;10485754;27;20149;-65
2021/03/15 08:58:37;;;;;;;35.78;28.85;;;;;;;;;;10484198;27;20089;-65
2021/03/15 09:03:47;;;;;;;45.50;35.83;;;;;;;;;;10485465;27;20079;-65
2021/03/15 09:08:57;;;;;;;32.00;26.58;;;;;;;;;;10484768;27;20085;-64
2021/03/15 09:14:28;;;;;;;32.65;20.95;;;;;;;;;;10485012;27;20078;-65
2021/03/15 09:19:26;;;;;;;29.55;18.05;;;;;;;;;;10484382;27;20050;-64
2021/03/15 09:24:48;;;;;;;18.90;14.48;;;;;;;;;;10484693;27;20053;-65
2021/03/15 09:29:52;;;;;;;20.50;17.08;;;;;;;;;;10483602;27;20046;-65
2021/03/15 09:34:51;;;;;;;36.05;25.05;;;;;;;;;;10483405;27;20093;-65
2021/03/15 09:39:48;;;;;;;11.30;9.38;;;;;;;;;;10483220;27;20054;-65
2021/03/15 09:44:46;;;;;;;92.90;53.03;;;;;;;;;;10483407;27;20074;-64
2021/03/15 09:49:44;;;;;;;35.33;23.50;;;;;;;;;;10463622;27;20431;-64
2021/03/15 09:54:50;;;;;;;39.08;25.10;;;;;;;;;;10464669;27;20153;-65
2021/03/15 09:59:48;;;;;;;13.95;10.57;;;;;;;;;;10463783;27;20388;-66
2021/03/15 10:04:49;;;;;;;26.42;19.75;;;;;;;;;;10464459;27;20047;-64
2021/03/15 10:10:09;;;;;;;19.27;14.50;;;;;;;;;;10489923;27;20038;-64
2021/03/15 10:15:25;;;;;;;29.48;21.40;;;;;;;;;;10488755;27;20515;-64
2021/03/15 10:20:35;;;;;;;45.70;32.08;;;;;;;;;;10463938;27;20500;-64
2021/03/15 10:25:33;;;;;;;38.22;24.58;;;;;;;;;;10463095;27;20046;-64
2021/03/15 10:30:33;;;;;;;36.38;22.60;;;;;;;;;;10463762;27;20046;-64
2021/03/15 10:35:33;;;;;;;27.42;22.40;;;;;;;;;;10463540;27;20527;-64
2021/03/15 10:40:39;;;;;;;31.52;26.65;;;;;;;;;;10463121;27;20434;-64
2021/03/15 10:45:43;;;;;;;23.30;19.30;;;;;;;;;;10463048;27;20050;-64
2021/03/15 10:50:45;;;;;;;25.55;19.63;;;;;;;;;;10462920;27;20070;-64
2021/03/15 10:55:47;;;;;;;;;;;;;;;;;;10463301;27;20082;-64
2021/03/15 11:00:49;;;;;;;57.63;44.95;;;;;;;;;;10463475;27;19919;-63
2021/03/15 11:05:47;;;;;;;27.05;16.65;;;;;;;;;;10462738;27;20531;-64
2021/03/15 11:10:47;;;;;;;26.25;19.65;;;;;;;;;;10482598;27;20043;-64
2021/03/15 11:15:50;;;;;;;22.07;19.77;;;;;;;;;;10469814;27;20051;-64
2021/03/15 11:20:56;;;;;;;22.83;20.35;;;;;;;;;;10490032;27;20292;-63
2021/03/15 11:26:13;;;;;;;21.67;19.42;;;;;;;;;;10493484;27;20411;-64
2021/03/15 11:31:14;;;;;;;19.92;17.80;;;;;;;;;;10469768;27;20057;-64
2021/03/15 11:36:12;;;;;;;19.88;17.38;;;;;;;;;;10488380;27;20077;-65
2021/03/15 11:41:16;;;;;;;22.65;17.13;;;;;;;;;;10469492;27;20050;-64
2021/03/15 11:46:15;;;;;;;28.35;21.02;;;;;;;;;;10489234;27;20039;-64
2021/03/15 11:51:14;;;;;;;46.50;27.08;;;;;;;;;;10488032;27;20054;-64
2021/03/15 11:56:24;;;;;;;29.45;22.27;;;;;;;;;;10469239;27;20061;-64
2021/03/15 12:01:24;;;;;;;29.15;26.02;;;;;;;;;;10469230;27;20047;-65
2021/03/15 12:06:23;;;;;;;35.25;31.42;;;;;;;;;;10487464;27;20074;-64
2021/03/15 12:32:13;;;;;;;41.50;36.83;;;;;;;;;;10434579;27;20365;-63
2021/03/15 12:37:11;;;;;;;43.65;36.53;;;;;;;;;;10391963;28;20063;-57
2021/03/15 12:42:11;;;;;;;46.45;40.17;;;;;;;;;;10391904;28;20043;-57
2021/03/15 12:47:20;;;;;;;43.92;38.58;;;;;;;;;;10391868;28;20063;-57
2021/03/15 12:52:19;;;;;;;44.78;39.25;;;;;;;;;;10391039;28;20481;-58
2021/03/15 12:57:25;;;;;;;50.03;43.33;;;;;;;;;;10390817;28;20048;-59
2021/03/15 13:02:29;;;;;;;48.42;42.72;;;;;;;;;;10392473;28;20496;-59
2021/03/15 13:07:26;;;;;;;49.28;43.97;;;;;;;;;;10392725;28;20075;-59
2021/03/15 13:12:37;;;;;;;52.20;43.10;;;;;;;;;;10390430;28;20058;-57
2021/03/15 13:17:42;;;;;;;54.78;40.20;;;;;;;;;;10391729;28;20102;-57
2021/03/15 13:22:45;;;;;;;42.30;36.43;;;;;;;;;;10389973;28;20056;-57
2021/03/15 13:27:49;;;;;;;42.17;35.90;;;;;;;;;;10391512;28;20317;-57
2021/03/15 13:32:48;;;;;;;43.35;35.10;;;;;;;;;;10364253;28;20040;-57
2021/03/15 13:37:47;;;;;;;54.22;42.17;;;;;;;;;;10361723;28;20079;-57
2021/03/15 13:43:01;;;;;;;45.90;40.03;;;;;;;;;;10362842;28;20036;-58
2021/03/15 13:48:06;;;;;;;48.53;40.85;;;;;;;;;;10361909;28;20044;-58
2021/03/15 13:53:05;;;;;;;45.70;36.90;;;;;;;;;;10361250;28;20059;-59
2021/03/15 13:58:03;;;;;;;47.60;38.67;;;;;;;;;;10360592;28;20071;-59
2021/03/15 14:03:07;;;;;;;49.13;38.45;;;;;;;;;;10361345;28;20048;-59
2021/03/15 14:08:05;;;;;;;48.55;41.05;;;;;;;;;;10360824;28;20048;-59
2021/03/15 14:13:03;;;;;;;50.58;40.60;;;;;;;;;;10362370;28;20040;-58
2021/03/15 14:18:02;;;;;;;45.17;38.83;;;;;;;;;;10360205;28;20137;-59
2021/03/15 14:23:04;;;;;;;67.35;52.33;;;;;;;;;;10360169;28;20048;-58
2021/03/15 14:28:03;;;;;;;57.92;44.53;;;;;;;;;;10359586;28;20056;-58
2021/03/15 14:33:06;;;;;;;53.33;44.20;;;;;;;;;;10359783;28;20056;-57
2021/03/15 14:38:16;;;;;;;85.03;68.85;;;;;;;;;;10359560;28;20056;-57
2021/03/15 14:43:14;;;;;;;54.03;45.60;;;;;;;;;;10358343;28;20051;-57
2021/03/15 14:48:38;;;;;;;60.45;43.13;;;;;;;;;;10358686;28;20059;-57
2021/03/15 14:53:43;;;;;;;50.85;38.83;;;;;;;;;;10359573;28;20055;-57
2021/03/15 14:58:53;;;;;;;61.33;45.45;;;;;;;;;;10360268;28;20075;-57
2021/03/15 15:03:55;;;;;;;62.65;46.35;;;;;;;;;;10358710;28;20051;-57
2021/03/15 15:08:54;;;;;;;53.90;43.17;;;;;;;;;;10358778;28;20048;-57
2021/03/15 15:14:11;;;;;;;71.28;52.97;;;;;;;;;;10359575;28;20051;-57
2021/03/15 15:19:15;;;;;;;77.55;64.47;;;;;;;;;;10358402;28;20094;-57
2021/03/15 15:24:17;;;;;;;78.78;55.08;;;;;;;;;;10358105;28;20146;-58
2021/03/15 15:29:15;;;;;;;68.97;53.22;;;;;;;;;;10358754;28;20052;-58
2021/03/15 15:34:12;;;;;;;85.47;65.10;;;;;;;;;;10357460;28;20052;-58
2021/03/15 15:39:10;;;;;;;33.70;20.73;;;;;;;;;;10358959;28;20091;-58
2021/03/15 15:44:08;;;;;;;14.02;8.38;;;;;;;;;;10358534;28;20417;-58
2021/03/15 15:49:05;;;;;;;21.42;13.30;;;;;;;;;;10359031;28;20056;-56
2021/03/15 15:54:03;;;;;;;18.88;10.05;;;;;;;;;;10358597;28;20096;-58
2021/03/15 15:59:01;;;;;;;19.45;15.35;;;;;;;;;;10357024;28;20048;-58
2021/03/15 16:03:59;;;;;;;36.42;30.55;;;;;;;;;;10358034;28;20040;-58
2021/03/15 16:08:57;;;;;;;30.17;26.88;;;;;;;;;;10358558;28;20044;-59
2021/03/15 16:13:55;;;;;;;96.15;72.88;;;;;;;;;;10348916;28;20477;-60
2021/03/15 16:18:52;;;;;;;21.40;17.67;;;;;;;;;;10333285;28;20076;-61
2021/03/15 16:23:50;;;;;;;28.45;17.15;;;;;;;;;;10330436;28;20232;-58
2021/03/15 16:28:48;;;;;;;22.30;16.95;;;;;;;;;;10335053;28;20085;-59
2021/03/15 16:33:46;;;;;;;17.52;14.43;;;;;;;;;;10319625;28;20092;-59
2021/03/15 16:38:43;;;;;;;15.48;10.02;;;;;;;;;;10332156;28;20086;-52
2021/03/15 16:43:42;;;;;;;15.38;10.90;;;;;;;;;;10337534;28;20071;-59
2021/03/15 16:48:39;;;;;;;26.55;21.05;;;;;;;;;;10339679;28;20505;-58
2021/03/15 16:53:37;;;;;;;18.85;13.95;;;;;;;;;;10327374;28;20090;-57
2021/03/15 16:58:34;;;;;;;16.17;13.02;;;;;;;;;;10332221;28;20455;-58
2021/03/15 17:03:32;;;;;;;24.58;17.83;;;;;;;;;;10316217;28;20411;-57
2021/03/15 17:08:29;;;;;;;32.45;20.52;;;;;;;;;;10322884;28;20493;-58
2021/03/15 17:13:28;;;;;;;46.70;29.80;;;;;;;;;;10331905;28;20067;-59
2021/03/15 17:18:25;;;;;;;27.33;18.90;;;;;;;;;;10333267;28;20083;-59
2021/03/15 17:23:23;;;;;;;16.42;10.75;;;;;;;;;;10329070;28;20135;-58
2021/03/15 17:28:20;;;;;;;16.65;10.25;;;;;;;;;;10328178;28;20081;-58
2021/03/15 17:33:18;;;;;;;15.50;10.05;;;;;;;;;;10361690;28;20044;-57
2021/03/15 17:38:15;;;;;;;17.13;12.50;;;;;;;;;;10363709;28;20079;-59
2021/03/15 17:43:13;;;;;;;13.50;10.15;;;;;;;;;;10352027;28;20071;-59
2021/03/15 17:48:10;;;;;;;10.55;9.45;;;;;;;;;;10331368;28;20544;-59
2021/03/15 17:53:08;;;;;;;12.05;8.43;;;;;;;;;;10321905;28;20094;-59
2021/03/15 17:58:05;;;;;;;14.93;7.35;;;;;;;;;;10322270;28;20110;-60
2021/03/15 18:03:04;;;;;;;46.33;24.42;;;;;;;;;;10342905;28;20072;-58
2021/03/15 18:08:03;;;;;;;33.75;21.00;;;;;;;;;;10362165;28;20079;-58
2021/03/15 18:13:00;;;;;;;37.33;26.35;;;;;;;;;;10362297;28;20436;-56
2021/03/15 18:18:10;;;;;;;42.20;29.73;;;;;;;;;;10362043;28;20052;-58
2021/03/15 18:23:14;;;;;;;32.00;24.20;;;;;;;;;;10336794;28;20528;-59
2021/03/15 18:28:12;;;;;;;30.25;22.58;;;;;;;;;;10355983;28;20094;-59
2021/03/15 18:33:09;;;;;;;20.50;13.82;;;;;;;;;;10358011;28;20056;-58
2021/03/15 18:38:08;;;;;;;21.77;14.50;;;;;;;;;;10357026;28;20488;-58
2021/03/15 18:43:05;;;;;;;19.33;14.65;;;;;;;;;;10359136;28;20047;-59
2021/03/15 18:48:02;;;;;;;19.80;13.65;;;;;;;;;;10360449;28;20044;-59
2021/03/15 18:53:00;;;;;;;9.55;7.78;;;;;;;;;;10360566;28;20077;-58
2021/03/15 18:57:58;;;;;;;11.70;9.80;;;;;;;;;;10360065;28;20508;-58
2021/03/15 19:02:56;;;;;;;12.30;8.25;;;;;;;;;;10359349;28;20059;-54
2021/03/15 19:07:54;;;;;;;19.67;14.45;;;;;;;;;;10327098;28;20078;-50
2021/03/15 19:12:51;;;;;;;15.40;10.95;;;;;;;;;;10330730;28;20071;-58
2021/03/15 19:17:49;;;;;;;30.58;19.75;;;;;;;;;;10329297;28;20106;-56
2021/03/15 19:22:47;;;;;;;18.30;13.90;;;;;;;;;;10350598;28;20158;-57
2021/03/15 19:27:44;;;;;;;19.48;13.68;;;;;;;;;;10339543;28;20076;-58
2021/03/15 19:32:41;;;;;;;20.33;17.92;;;;;;;;;;10335030;28;20087;-58
2021/03/15 19:37:40;;;;;;;22.48;20.02;;;;;;;;;;10320786;28;20065;-57
2021/03/15 19:42:38;;;;;;;14.20;12.75;;;;;;;;;;10332528;28;20072;-56
2021/03/15 19:47:36;;;;;;;12.93;11.73;;;;;;;;;;10326813;28;20079;-56
2021/03/15 19:52:35;;;;;;;14.90;12.73;;;;;;;;;;10344017;28;20413;-56
2021/03/15 19:57:34;;;;;;;28.17;20.08;;;;;;;;;;10343841;28;20075;-56
2021/03/15 20:02:32;;;;;;;15.20;13.23;;;;;;;;;;10348478;28;20078;-58
2021/03/15 20:07:29;;;;;;;14.50;13.10;;;;;;;;;;10341737;28;20072;-58
2021/03/15 20:12:27;;;;;;;14.57;12.98;;;;;;;;;;10351242;28;20048;-59
2021/03/15 20:17:26;;;;;;;13.15;11.85;;;;;;;;;;10345732;28;20520;-52
2021/03/15 20:22:24;;;;;;;12.98;11.52;;;;;;;;;;10352185;28;20073;-56
2021/03/15 20:27:22;;;;;;;13.05;11.63;;;;;;;;;;10349810;28;20079;-59
2021/03/15 20:32:19;;;;;;;9.90;8.40;;;;;;;;;;10339352;28;20072;-58
2021/03/15 20:37:17;;;;;;;7.35;6.65;;;;;;;;;;10344500;28;20067;-58
2021/03/15 20:42:15;;;;;;;8.95;8.05;;;;;;;;;;10346293;28;20521;-57
2021/03/15 20:47:12;;;;;;;9.73;7.75;;;;;;;;;;10355644;28;20078;-56
2021/03/15 20:52:09;;;;;;;9.52;8.27;;;;;;;;;;10347194;28;20071;-57
2021/03/15 20:57:08;;;;;;;8.05;7.25;;;;;;;;;;10363831;28;20048;-57
2021/03/15 21:02:05;;;;;;;10.43;8.75;;;;;;;;;;10363337;28;20072;-57
2021/03/15 21:07:04;;;;;;;6.18;5.57;;;;;;;;;;10363769;28;20036;-58
2021/03/15 21:12:01;;;;;;;6.18;5.57;;;;;;;;;;10350762;28;20544;-55
2021/03/15 21:16:59;;;;;;;7.03;5.47;;;;;;;;;;10338150;28;20520;-57
2021/03/15 21:21:57;;;;;;;6.63;4.82;;;;;;;;;;10355052;28;20146;-57
2021/03/15 21:26:54;;;;;;;16.83;10.55;;;;;;;;;;10355139;28;20040;-57
2021/03/15 21:31:52;;;;;;;8.27;6.15;;;;;;;;;;10362585;28;20056;-57
2021/03/15 21:36:50;;;;;;;7.32;5.85;;;;;;;;;;10362082;28;20032;-58
2021/03/15 21:41:48;;;;;;;8.45;6.50;;;;;;;;;;10356432;28;20118;-59
2021/03/15 21:47:02;;;;;;;10.25;7.45;;;;;;;;;;10355432;28;20071;-57
2021/03/15 21:52:00;;;;;;;8.88;7.43;;;;;;;;;;10361533;28;20039;-57
2021/03/15 21:56:58;;;;;;;15.35;10.02;;;;;;;;;;10350434;28;20068;-56
2021/03/15 22:01:55;;;;;;;9.73;6.05;;;;;;;;;;10338205;28;20068;-56
2021/03/15 22:06:52;;;;;;;5.97;5.07;;;;;;;;;;10345321;28;20079;-57
2021/03/15 22:11:51;;;;;;;7.95;6.22;;;;;;;;;;10341114;28;20483;-55
2021/03/15 22:16:48;;;;;;;6.95;5.90;;;;;;;;;;10335617;28;20126;-57
2021/03/15 22:21:46;;;;;;;9.10;6.43;;;;;;;;;;10336733;28;20485;-58
2021/03/15 22:26:43;;;;;;;6.70;5.85;;;;;;;;;;10328912;28;20067;-56
2021/03/15 22:31:41;;;;;;;8.35;7.30;;;;;;;;;;10324041;28;20082;-57
2021/03/15 22:36:39;;;;;;;6.43;5.20;;;;;;;;;;10320145;28;20060;-56
2021/03/15 22:41:37;;;;;;;5.50;5.10;;;;;;;;;;10320147;28;20080;-56
2021/03/15 22:46:34;;;;;;;5.78;5.28;;;;;;;;;;10320289;28;20056;-54
2021/03/15 22:51:33;;;;;;;5.88;5.25;;;;;;;;;;10334595;28;20071;-57
2021/03/15 22:56:36;;;;;;;7.13;5.93;;;;;;;;;;10335236;28;20139;-56
2021/03/15 23:01:33;;;;;;;6.03;5.50;;;;;;;;;;10334760;28;20083;-56
2021/03/15 23:06:31;;;;;;;5.75;5.20;;;;;;;;;;10333860;28;20488;-57
2021/03/15 23:11:30;;;;;;;5.45;5.05;;;;;;;;;;10335402;28;20064;-57
2021/03/15 23:16:27;;;;;;;6.25;5.70;;;;;;;;;;10327810;28;20052;-51
2021/03/15 23:21:25;;;;;;;5.68;5.20;;;;;;;;;;10318980;28;20080;-58
2021/03/15 23:26:26;;;;;;;5.18;4.78;;;;;;;;;;10318731;28;20076;-59
2021/03/15 23:31:25;;;;;;;6.63;5.22;;;;;;;;;;10316525;28;20057;-57
2021/03/15 23:36:23;;;;;;;5.65;5.25;;;;;;;;;;10317621;28;20040;-56
2021/03/15 23:41:20;;;;;;;4.85;4.45;;;;;;;;;;10318421;28;20517;-57
2021/03/15 23:46:17;;;;;;;5.65;4.28;;;;;;;;;;10318071;28;20075;-56
2021/03/15 23:51:16;;;;;;;5.63;5.13;;;;;;;;;;10318049;28;20053;-57
2021/03/15 23:56:32;;;;;;;4.30;3.97;;;;;;;;;;10318865;28;20064;-57
